createdAt,value
2018-01-20T00:00:27.887Z,1.00
2018-01-20T00:02:55.383Z,1.00
2018-01-20T00:05:23.647Z,1.00
2018-01-20T00:07:51.122Z,1.00
2018-01-20T00:23:44.822Z,0.90
2018-01-20T00:26:18.054Z,0.90
2018-01-20T00:28:45.590Z,0.90
2018-01-20T00:31:13.174Z,0.90
2018-01-20T00:33:40.650Z,0.90
2018-01-20T00:36:08.908Z,0.90
2018-01-20T00:38:36.601Z,0.90
2018-01-20T00:41:04.134Z,0.90
2018-01-20T00:43:31.617Z,0.90
2018-01-20T00:45:59.097Z,1.00
2018-01-20T00:48:26.615Z,0.90
2018-01-20T00:50:54.865Z,0.90
2018-01-20T00:53:22.454Z,0.90
2018-01-20T00:55:50.714Z,0.80
2018-01-20T00:58:19.755Z,0.80
2018-01-20T01:00:47.234Z,0.70
2018-01-20T01:03:14.739Z,0.70
2018-01-20T01:05:43.017Z,0.50
2018-01-20T01:08:11.257Z,0.50
2018-01-20T01:10:38.811Z,0.50
2018-01-20T01:13:06.314Z,0.50
2018-01-20T01:15:34.578Z,0.60
2018-01-20T01:18:02.062Z,0.50
2018-01-20T01:20:29.616Z,0.60
2018-01-20T01:22:57.874Z,0.60
2018-01-20T01:25:25.350Z,0.60
2018-01-20T01:27:53.602Z,0.60
2018-01-20T01:30:21.166Z,0.60
2018-01-20T01:32:48.646Z,0.60
2018-01-20T01:35:17.002Z,0.60
2018-01-20T01:37:44.574Z,0.60
2018-01-20T01:40:12.821Z,0.70
2018-01-20T01:42:40.406Z,0.60
2018-01-20T01:45:08.646Z,0.60
2018-01-20T01:47:36.143Z,0.60
2018-01-20T01:50:04.395Z,0.60
2018-01-20T01:52:31.869Z,0.60
2018-01-20T01:54:59.351Z,0.50
2018-01-20T01:57:26.845Z,0.40
2018-01-20T01:59:54.327Z,0.30
2018-01-20T02:02:21.803Z,0.10
2018-01-20T02:04:49.291Z,0.10
2018-01-20T02:07:16.767Z,0.20
2018-01-20T02:09:44.245Z,0.20
2018-01-20T02:12:11.731Z,0.30
2018-01-20T02:14:40.714Z,0.40
2018-01-20T02:17:08.294Z,0.40
2018-01-20T02:19:36.558Z,0.50
2018-01-20T02:22:04.026Z,0.50
2018-01-20T02:24:32.304Z,0.50
2018-01-20T02:27:00.570Z,0.50
2018-01-20T02:29:28.138Z,0.50
2018-01-20T02:31:56.406Z,0.50
2018-01-20T02:34:24.694Z,0.50
2018-01-20T02:36:52.929Z,0.60
2018-01-20T02:39:20.439Z,0.50
2018-01-20T02:41:48.682Z,0.50
2018-01-20T02:44:16.153Z,0.50
2018-01-20T02:46:43.628Z,0.50
2018-01-20T02:49:11.958Z,0.50
2018-01-20T02:51:39.421Z,0.50
2018-01-20T02:54:06.909Z,0.50
2018-01-20T02:56:35.193Z,0.60
2018-01-20T02:59:03.469Z,0.60
2018-01-20T03:01:32.427Z,0.70
2018-01-20T03:03:59.911Z,0.60
2018-01-20T03:06:27.373Z,0.70
2018-01-20T03:08:54.938Z,0.80
2018-01-20T03:11:23.213Z,0.60
2018-01-20T03:13:51.456Z,0.60
2018-01-20T03:16:18.943Z,0.60
2018-01-20T03:18:46.431Z,0.60
2018-01-20T03:21:13.970Z,0.60
2018-01-20T03:23:42.214Z,0.50
2018-01-20T03:26:09.806Z,0.50
2018-01-20T03:28:38.050Z,0.40
2018-01-20T03:31:05.526Z,0.40
2018-01-20T03:33:34.530Z,0.10
2018-01-20T03:36:02.766Z,-0.10
2018-01-20T03:38:30.264Z,-0.10
2018-01-20T03:40:58.522Z,-0.10
2018-01-20T03:43:27.506Z,-0.10
2018-01-20T03:45:55.094Z,-0.10
2018-01-20T03:48:23.354Z,-0.30
2018-01-20T03:50:50.837Z,-0.40
2018-01-20T03:53:19.077Z,-0.40
2018-01-20T03:55:46.569Z,-0.40
2018-01-20T03:58:14.829Z,-0.40
2018-01-20T04:00:42.329Z,-0.40
2018-01-20T04:03:09.855Z,-0.50
2018-01-20T04:05:38.133Z,-0.50
2018-01-20T04:08:06.415Z,-0.60
2018-01-20T04:10:34.665Z,-0.60
2018-01-20T04:13:02.151Z,-0.60
2018-01-20T04:15:30.391Z,-0.60
2018-01-20T04:17:57.985Z,-0.60
2018-01-20T04:20:26.226Z,-0.60
2018-01-20T04:22:53.718Z,-0.60
2018-01-20T04:25:21.994Z,-0.50
2018-01-20T04:27:50.275Z,-0.40
2018-01-20T04:30:18.528Z,-0.30
2018-01-20T04:32:46.026Z,-0.30
2018-01-20T04:35:13.511Z,-0.30
2018-01-20T04:37:41.156Z,-0.30
2018-01-20T04:40:08.646Z,-0.30
2018-01-20T04:42:36.138Z,-0.20
2018-01-20T04:45:04.384Z,-0.20
2018-01-20T04:47:31.869Z,-0.20
2018-01-20T04:50:00.151Z,-0.20
2018-01-20T04:52:28.428Z,-0.20
2018-01-20T04:54:56.697Z,-0.20
2018-01-20T04:57:24.180Z,-0.20
2018-01-20T04:59:51.731Z,-0.20
2018-01-20T05:02:20.002Z,-0.20
2018-01-20T05:04:48.523Z,-0.20
2018-01-20T05:07:16.037Z,-0.20
2018-01-20T05:09:44.297Z,-0.20
2018-01-20T05:12:13.276Z,-0.20
2018-01-20T05:14:40.755Z,-0.20
2018-01-20T05:17:08.331Z,-0.10
2018-01-20T05:19:35.888Z,-0.10
2018-01-20T05:22:04.171Z,0.00
2018-01-20T05:24:32.442Z,0.00
2018-01-20T05:27:00.718Z,0.00
2018-01-20T05:29:28.962Z,0.10
2018-01-20T05:31:56.546Z,0.10
2018-01-20T05:34:24.018Z,0.10
2018-01-20T05:36:52.257Z,0.20
2018-01-20T05:39:19.742Z,0.20
2018-01-20T05:41:48.049Z,0.30
2018-01-20T05:44:15.542Z,0.30
2018-01-20T05:46:43.022Z,0.30
2018-01-20T05:49:10.549Z,0.40
2018-01-20T05:51:38.022Z,0.40
2018-01-20T05:54:05.620Z,0.40
2018-01-20T05:56:33.863Z,0.40
2018-01-20T05:59:01.333Z,0.40
2018-01-20T06:01:28.821Z,0.50
2018-01-20T06:03:57.085Z,0.60
2018-01-20T06:06:25.365Z,0.60
2018-01-20T06:08:53.612Z,0.60
2018-01-20T06:11:22.161Z,0.70
2018-01-20T06:13:49.643Z,0.60
2018-01-20T06:16:17.233Z,0.70
2018-01-20T06:18:44.711Z,0.70
2018-01-20T06:21:12.954Z,0.70
2018-01-20T06:23:41.958Z,0.70
2018-01-20T06:26:09.430Z,0.70
2018-01-20T06:28:37.678Z,0.80
2018-01-20T06:31:05.162Z,0.80
2018-01-20T06:33:33.438Z,0.80
2018-01-20T06:36:01.674Z,0.90
2018-01-20T06:38:29.158Z,0.90
2018-01-20T06:40:58.138Z,0.90
2018-01-20T06:43:25.726Z,0.90
2018-01-20T06:45:54.002Z,1.00
2018-01-20T06:48:22.283Z,1.00
2018-01-20T06:50:50.549Z,1.00
2018-01-20T06:53:18.181Z,1.00
2018-01-20T06:55:45.649Z,1.00
2018-01-20T06:58:13.125Z,1.00
2018-01-20T07:00:41.386Z,1.00
2018-01-20T07:03:08.865Z,1.00
2018-01-20T07:05:37.105Z,1.00
2018-01-20T07:08:04.701Z,1.00
2018-01-20T07:10:32.951Z,1.10
2018-01-20T07:13:00.419Z,1.10
2018-01-20T07:15:27.907Z,1.00
2018-01-20T07:17:56.143Z,1.00
2018-01-20T07:20:23.627Z,1.00
2018-01-20T07:22:51.961Z,1.00
2018-01-20T07:25:19.430Z,1.00
2018-01-20T07:27:46.910Z,1.00
2018-01-20T07:30:15.158Z,0.90
2018-01-20T07:32:42.706Z,0.90
2018-01-20T07:35:10.213Z,0.90
2018-01-20T07:37:38.462Z,1.00
2018-01-20T07:40:11.926Z,0.90
2018-01-20T07:42:39.397Z,0.90
2018-01-20T07:45:06.882Z,0.90
2018-01-20T07:47:34.359Z,1.00
2018-01-20T07:50:01.876Z,0.90
2018-01-20T07:52:29.358Z,1.00
2018-01-20T07:54:56.821Z,0.90
2018-01-20T07:57:24.901Z,0.90
2018-01-20T07:59:52.375Z,1.00
2018-01-20T08:04:54.449Z,1.10
2018-01-20T08:07:21.923Z,1.10
2018-01-20T08:09:50.705Z,1.30
2018-01-20T08:12:18.951Z,1.30
2018-01-20T08:14:46.431Z,1.30
2018-01-20T08:17:13.902Z,1.30
2018-01-20T08:19:41.389Z,1.30
2018-01-20T08:22:08.903Z,1.40
2018-01-20T08:24:37.134Z,1.50
2018-01-20T08:27:04.642Z,1.50
2018-01-20T08:29:32.886Z,1.60
2018-01-20T08:32:00.369Z,1.60
2018-01-20T08:34:27.849Z,1.60
2018-01-20T08:36:56.110Z,1.70
2018-01-20T08:39:24.355Z,1.60
2018-01-20T08:41:51.835Z,1.60
2018-01-20T08:44:19.310Z,1.60
2018-01-20T08:46:47.546Z,1.60
2018-01-20T08:49:15.074Z,1.60
2018-01-20T08:51:42.546Z,1.60
2018-01-20T08:54:10.018Z,1.60
2018-01-20T08:56:37.510Z,1.70
2018-01-20T08:59:05.745Z,1.80
2018-01-20T09:01:33.242Z,1.80
2018-01-20T09:04:01.498Z,1.80
2018-01-20T09:06:28.976Z,1.80
2018-01-20T09:08:56.446Z,1.90
2018-01-20T09:11:24.697Z,1.80
2018-01-20T09:13:52.171Z,1.80
2018-01-20T09:16:20.415Z,2.00
2018-01-20T09:18:47.905Z,2.00
2018-01-20T09:21:16.133Z,2.30
2018-01-20T09:23:43.615Z,2.30
2018-01-20T09:26:11.192Z,2.50
2018-01-20T09:28:38.759Z,2.90
2018-01-20T09:31:06.998Z,3.10
2018-01-20T09:33:34.797Z,3.10
2018-01-20T09:36:02.266Z,3.10
2018-01-20T09:38:30.508Z,3.00
2018-01-20T09:40:58.814Z,3.10
2018-01-20T09:43:27.053Z,3.30
2018-01-20T09:45:54.522Z,3.30
2018-01-20T09:48:22.012Z,3.40
2018-01-20T09:50:50.246Z,4.00
2018-01-20T09:53:17.750Z,4.00
2018-01-20T09:55:45.994Z,4.10
2018-01-20T09:58:13.470Z,4.00
2018-01-20T10:00:41.742Z,4.00
2018-01-20T10:03:09.222Z,4.00
2018-01-20T10:05:37.454Z,3.90
2018-01-20T10:08:04.918Z,3.90
2018-01-20T10:10:32.536Z,3.80
2018-01-20T10:13:00.064Z,3.80
2018-01-20T10:15:28.343Z,3.70
2018-01-20T10:17:56.599Z,3.60
2018-01-20T10:20:24.109Z,3.60
2018-01-20T10:22:53.285Z,4.30
2018-01-20T10:25:20.897Z,4.30
2018-01-20T10:27:48.401Z,4.70
2018-01-20T10:30:17.151Z,5.10
2018-01-20T10:32:46.145Z,5.10
2018-01-20T10:35:13.617Z,5.10
2018-01-20T10:37:41.195Z,5.30
2018-01-20T10:40:09.475Z,6.30
2018-01-20T10:42:37.741Z,6.00
2018-01-20T10:45:05.210Z,6.00
2018-01-20T10:47:33.487Z,5.80
2018-01-20T10:50:01.756Z,6.90
2018-01-20T10:52:30.033Z,8.00
2018-01-20T10:54:58.274Z,8.60
2018-01-20T10:57:25.746Z,8.60
2018-01-20T10:59:53.210Z,8.60
2018-01-20T11:02:20.778Z,8.00
2018-01-20T11:04:48.246Z,7.60
2018-01-20T11:07:16.510Z,7.90
2018-01-20T11:09:44.287Z,7.90
2018-01-20T11:12:12.653Z,7.50
2018-01-20T11:14:40.220Z,7.50
2018-01-20T11:17:08.466Z,7.10
2018-01-20T11:19:35.947Z,7.10
2018-01-20T11:22:03.573Z,7.80
2018-01-20T11:24:31.059Z,7.90
2018-01-20T11:26:58.533Z,7.20
2018-01-20T11:29:26.767Z,6.80
2018-01-20T11:31:54.267Z,6.80
2018-01-20T11:34:21.755Z,6.40
2018-01-20T11:36:49.231Z,6.40
2018-01-20T11:39:16.713Z,6.40
2018-01-20T11:41:44.182Z,6.30
2018-01-20T11:44:11.654Z,6.40
2018-01-20T11:46:39.932Z,7.70
2018-01-20T11:49:08.172Z,7.40
2018-01-20T11:51:35.666Z,7.40
2018-01-20T11:54:03.942Z,7.10
2018-01-20T11:56:32.198Z,7.20
2018-01-20T11:58:59.674Z,7.20
2018-01-20T12:01:27.165Z,7.00
2018-01-20T12:03:55.394Z,7.00
2018-01-20T12:06:22.866Z,6.90
2018-01-20T12:08:50.350Z,6.90
2018-01-20T12:11:17.882Z,6.90
2018-01-20T12:13:46.110Z,6.40
2018-01-20T12:16:13.624Z,6.40
2018-01-20T12:18:42.143Z,6.00
2018-01-20T12:21:09.609Z,6.00
2018-01-20T12:23:37.090Z,6.00
2018-01-20T12:26:04.560Z,5.80
2018-01-20T12:28:32.035Z,5.80
2018-01-20T12:31:00.286Z,5.50
2018-01-20T12:33:27.771Z,5.40
2018-01-20T12:35:56.007Z,5.60
2018-01-20T12:38:23.495Z,5.60
2018-01-20T12:40:50.960Z,5.60
2018-01-20T12:43:19.198Z,5.80
2018-01-20T12:45:46.682Z,5.80
2018-01-20T12:48:14.154Z,5.60
2018-01-20T12:50:42.394Z,5.70
2018-01-20T12:53:09.874Z,5.60
2018-01-20T12:55:37.341Z,5.60
2018-01-20T12:58:05.577Z,6.00
2018-01-20T13:00:33.054Z,5.90
2018-01-20T13:03:00.530Z,5.80
2018-01-20T13:05:28.090Z,5.70
2018-01-20T13:07:55.571Z,5.50
2018-01-20T13:10:23.825Z,6.50
2018-01-20T13:12:52.062Z,6.90
2018-01-20T13:15:19.548Z,6.90
2018-01-20T13:17:47.024Z,7.10
2018-01-20T13:20:15.269Z,7.40
2018-01-20T13:22:42.767Z,7.40
2018-01-20T13:25:11.005Z,7.10
2018-01-20T13:27:38.743Z,7.10
2018-01-20T13:30:06.619Z,7.10
2018-01-20T13:32:34.127Z,6.90
2018-01-20T13:35:02.368Z,6.40
2018-01-20T13:37:30.500Z,6.40
2018-01-20T13:39:57.978Z,6.20
2018-01-20T13:42:25.451Z,5.90
2018-01-20T13:44:52.941Z,5.70
2018-01-20T13:47:20.410Z,5.50
2018-01-20T13:49:48.647Z,5.20
2018-01-20T13:52:16.144Z,5.20
2018-01-20T13:54:44.417Z,5.00
2018-01-20T13:57:15.380Z,4.90
2018-01-20T13:59:42.922Z,4.90
2018-01-20T14:02:11.162Z,4.80
2018-01-20T14:04:38.638Z,4.70
2018-01-20T14:07:06.245Z,4.60
2018-01-20T14:09:34.748Z,4.50
2018-01-20T14:12:02.272Z,4.40
2018-01-20T14:14:29.766Z,4.20
2018-01-20T14:16:57.262Z,4.10
2018-01-20T14:19:24.841Z,4.10
2018-01-20T14:21:53.139Z,3.90
2018-01-20T14:24:20.660Z,3.80
2018-01-20T14:26:48.945Z,3.70
2018-01-20T14:29:17.315Z,3.70
2018-01-20T14:31:44.785Z,3.70
2018-01-20T14:34:13.063Z,3.60
2018-01-20T14:36:41.337Z,3.60
2018-01-20T14:39:08.909Z,3.60
2018-01-20T14:41:37.147Z,3.60
2018-01-20T14:44:04.666Z,3.50
2018-01-20T14:46:32.193Z,3.50
2018-01-20T14:49:00.463Z,3.40
2018-01-20T14:51:27.946Z,3.40
2018-01-20T14:53:55.412Z,3.30
2018-01-20T14:56:22.938Z,3.20
2018-01-20T14:58:51.208Z,3.10
2018-01-20T15:01:18.686Z,3.10
2018-01-20T15:03:46.922Z,3.10
2018-01-20T15:06:14.500Z,3.10
2018-01-20T15:08:41.996Z,3.10
2018-01-20T15:11:09.526Z,3.00
2018-01-20T15:13:37.850Z,2.80
2018-01-20T15:16:05.464Z,2.80
2018-01-20T15:18:34.456Z,2.70
2018-01-20T15:21:02.741Z,2.60
2018-01-20T15:23:31.010Z,2.60
2018-01-20T15:25:59.249Z,2.60
2018-01-20T15:28:26.737Z,2.60
2018-01-20T15:30:54.979Z,2.50
2018-01-20T15:33:22.449Z,2.40
2018-01-20T15:35:50.041Z,2.40
2018-01-20T15:38:18.335Z,2.30
2018-01-20T15:40:45.811Z,2.30
2018-01-20T15:43:13.303Z,2.30
2018-01-20T15:45:40.774Z,2.20
2018-01-20T15:48:08.266Z,2.20
2018-01-20T15:50:35.807Z,2.10
2018-01-20T15:53:03.494Z,2.10
2018-01-20T15:55:31.062Z,2.10
2018-01-20T15:57:58.590Z,2.00
2018-01-20T16:00:26.834Z,2.00
2018-01-20T16:02:54.362Z,2.00
2018-01-20T16:05:21.886Z,2.00
2018-01-20T16:07:50.125Z,2.00
2018-01-20T16:10:17.604Z,2.00
2018-01-20T16:12:45.095Z,2.00
2018-01-20T16:15:12.581Z,2.00
2018-01-20T16:17:40.112Z,1.90
2018-01-20T16:20:08.482Z,2.00
2018-01-20T16:22:36.748Z,2.00
2018-01-20T16:25:05.020Z,1.90
2018-01-20T16:27:33.338Z,2.00
2018-01-20T16:30:00.852Z,2.00
2018-01-20T16:32:28.325Z,2.00
2018-01-20T16:34:56.599Z,1.90
2018-01-20T16:37:24.895Z,1.80
2018-01-20T16:39:52.401Z,1.80
2018-01-20T16:42:20.687Z,1.70
2018-01-20T16:44:48.193Z,1.70
2018-01-20T16:47:15.723Z,1.70
2018-01-20T16:49:43.986Z,1.70
2018-01-20T16:52:11.463Z,1.70
2018-01-20T16:54:39.710Z,1.60
2018-01-20T16:57:07.492Z,1.60
2018-01-20T16:59:35.743Z,1.60
2018-01-20T17:02:03.506Z,1.60
2018-01-20T17:04:30.998Z,1.60
2018-01-20T17:06:59.290Z,1.70
2018-01-20T17:09:26.850Z,1.70
2018-01-20T17:11:55.098Z,1.70
2018-01-20T17:14:24.078Z,1.70
2018-01-20T17:16:53.070Z,1.80
2018-01-20T17:19:20.569Z,1.80
2018-01-20T17:21:48.874Z,1.90
2018-01-20T17:24:16.366Z,1.90
2018-01-20T17:26:43.850Z,2.00
2018-01-20T17:29:12.130Z,2.00
2018-01-20T17:31:40.409Z,2.00
2018-01-20T17:34:08.677Z,1.90
2018-01-20T17:36:36.959Z,1.90
2018-01-20T17:39:04.463Z,1.80
2018-01-20T17:41:31.951Z,1.80
2018-01-20T17:43:59.435Z,1.80
2018-01-20T17:46:27.681Z,1.90
2018-01-20T17:48:55.269Z,1.90
2018-01-20T17:51:23.546Z,2.00
2018-01-20T17:53:51.791Z,1.90
2018-01-20T17:56:19.283Z,1.90
2018-01-20T17:58:47.531Z,1.70
2018-01-20T18:01:15.015Z,1.70
2018-01-20T18:03:43.275Z,1.60
2018-01-20T18:06:10.854Z,1.60
2018-01-20T18:08:39.128Z,1.50
2018-01-20T18:11:07.390Z,1.50
2018-01-20T18:13:34.870Z,1.50
2018-01-20T18:16:03.106Z,1.40
2018-01-20T18:18:30.600Z,1.40
2018-01-20T18:20:58.846Z,1.40
2018-01-20T18:23:26.326Z,1.40
2018-01-20T18:25:54.601Z,1.40
2018-01-20T18:28:22.859Z,1.50
2018-01-20T18:30:51.837Z,1.50
2018-01-20T18:33:19.337Z,1.50
2018-01-20T18:35:47.611Z,1.50
2018-01-20T18:38:15.891Z,1.50
2018-01-20T18:40:44.147Z,1.50
2018-01-20T18:43:11.625Z,1.50
2018-01-20T18:45:39.916Z,1.50
2018-01-20T18:48:07.465Z,1.50
2018-01-20T18:50:35.726Z,1.50
2018-01-20T18:53:03.211Z,1.50
2018-01-20T18:55:30.707Z,1.50
2018-01-20T18:57:58.190Z,1.40
2018-01-20T19:00:25.785Z,1.40
2018-01-20T19:02:53.318Z,1.40
2018-01-20T19:05:20.794Z,1.30
2018-01-20T19:07:49.094Z,1.30
2018-01-20T19:10:16.582Z,1.30
2018-01-20T19:12:44.074Z,1.30
2018-01-20T19:15:12.322Z,1.20
2018-01-20T19:17:39.844Z,1.20
2018-01-20T19:20:07.320Z,1.20
2018-01-20T19:22:34.828Z,1.20
2018-01-20T19:25:03.082Z,1.20
2018-01-20T19:27:31.320Z,1.20
2018-01-20T19:29:58.825Z,1.20
2018-01-20T19:32:26.309Z,1.20
2018-01-20T19:34:54.557Z,1.10
2018-01-20T19:37:22.033Z,1.10
2018-01-20T19:39:50.285Z,1.10
2018-01-20T19:42:20.377Z,1.10
2018-01-20T19:44:47.886Z,1.10
2018-01-20T19:47:16.177Z,1.10
2018-01-20T19:49:44.427Z,1.10
2018-01-20T19:52:11.915Z,1.10
2018-01-20T19:54:40.192Z,1.10
2018-01-20T19:57:07.735Z,1.00
2018-01-20T19:59:35.985Z,1.10
2018-01-20T20:02:03.494Z,1.10
2018-01-20T20:04:30.979Z,1.10
2018-01-20T20:06:58.457Z,1.10
2018-01-20T20:09:25.966Z,1.10
2018-01-20T20:11:53.498Z,1.10
2018-01-20T20:14:21.750Z,1.00
2018-01-20T20:16:49.230Z,1.00
2018-01-20T20:19:17.512Z,1.00
2018-01-20T20:21:45.822Z,1.00
2018-01-20T20:24:13.309Z,1.00
2018-01-20T20:26:40.790Z,1.00
2018-01-20T20:29:08.267Z,1.00
2018-01-20T20:31:36.539Z,1.00
2018-01-20T20:34:04.821Z,1.00
2018-01-20T20:36:33.337Z,1.00
2018-01-20T20:39:00.874Z,1.00
2018-01-20T20:41:29.113Z,1.00
2018-01-20T20:43:56.597Z,1.00
2018-01-20T20:46:24.849Z,1.00
2018-01-20T20:48:52.335Z,1.00
2018-01-20T20:51:19.829Z,1.00
2018-01-20T20:53:47.319Z,1.00
2018-01-20T20:56:16.300Z,1.00
2018-01-20T20:58:43.782Z,1.00
2018-01-20T21:01:11.355Z,1.00
2018-01-20T21:03:39.629Z,1.10
2018-01-20T21:06:07.919Z,1.10
2018-01-20T21:08:36.189Z,1.10
2018-01-20T21:11:04.460Z,1.00
2018-01-20T21:13:32.742Z,1.00
2018-01-20T21:16:01.025Z,1.10
2018-01-20T21:18:28.524Z,1.10
2018-01-20T21:20:56.038Z,1.30
2018-01-20T21:23:27.153Z,1.40
2018-01-20T21:25:54.602Z,1.40
2018-01-20T21:28:22.100Z,1.30
2018-01-20T21:30:50.419Z,1.20
2018-01-20T21:33:17.918Z,1.20
2018-01-20T21:35:45.410Z,1.20
2018-01-20T21:38:12.905Z,1.10
2018-01-20T21:40:40.381Z,1.10
2018-01-20T21:43:08.622Z,1.10
2018-01-20T21:45:36.113Z,1.10
2018-01-20T21:48:05.131Z,1.00
2018-01-20T21:50:33.369Z,1.00
2018-01-20T21:53:00.863Z,1.00
2018-01-20T21:55:29.117Z,1.20
2018-01-20T21:57:58.107Z,1.30
2018-01-20T22:00:25.607Z,1.30
2018-01-20T22:02:53.857Z,1.40
2018-01-20T22:05:21.328Z,1.40
2018-01-20T22:07:49.634Z,1.40
2018-01-20T22:10:17.167Z,1.40
2018-01-20T22:12:45.428Z,1.40
2018-01-20T22:15:13.699Z,1.30
2018-01-20T22:17:41.274Z,1.30
2018-01-20T22:20:09.567Z,1.20
2018-01-20T22:22:37.935Z,1.20
2018-01-20T22:25:06.182Z,1.20
2018-01-20T22:27:34.474Z,1.10
2018-01-20T22:30:02.042Z,1.10
2018-01-20T22:32:30.293Z,1.20
2018-01-20T22:34:57.773Z,1.20
2018-01-20T22:37:26.058Z,1.10
2018-01-20T22:39:54.311Z,1.20
2018-01-20T22:42:21.785Z,1.10
2018-01-20T22:44:50.066Z,1.10
2018-01-20T22:47:18.319Z,1.10
2018-01-20T22:49:46.595Z,1.10
2018-01-20T22:52:14.079Z,1.10
2018-01-20T22:54:42.339Z,1.30
2018-01-20T22:57:09.825Z,1.30
2018-01-20T22:59:38.187Z,1.20
2018-01-20T23:02:07.064Z,1.20
2018-01-20T23:04:35.319Z,1.10
2018-01-20T23:07:02.915Z,1.10
2018-01-20T23:09:31.167Z,1.10
2018-01-20T23:11:58.641Z,1.10
2018-01-20T23:14:26.145Z,1.10
2018-01-20T23:16:53.666Z,1.10
2018-01-20T23:19:21.906Z,1.10
2018-01-20T23:21:49.386Z,1.10
2018-01-20T23:24:16.962Z,1.10
2018-01-20T23:26:45.204Z,1.00
2018-01-20T23:29:12.698Z,1.00
2018-01-20T23:31:40.962Z,1.00
2018-01-20T23:34:09.590Z,1.00
2018-01-20T23:36:37.074Z,1.00
2018-01-20T23:39:04.575Z,1.10
2018-01-20T23:41:32.805Z,1.10
2018-01-20T23:44:00.305Z,1.00
2018-01-20T23:46:28.556Z,1.10
2018-01-20T23:48:56.021Z,1.00
2018-01-20T23:51:23.502Z,1.10
2018-01-20T23:53:51.783Z,1.10
2018-01-20T23:56:20.009Z,1.10
2018-01-20T23:58:47.489Z,1.10
